createdAt,value
2022-08-01T00:02:11.577Z,5.32
2022-08-01T00:07:13.710Z,8.63
2022-08-01T00:12:15.313Z,7.38
2022-08-01T00:17:16.925Z,6.05
2022-08-01T00:22:18.495Z,11.38
2022-08-01T00:27:21.150Z,6.47
2022-08-01T00:32:23.027Z,5.60
2022-08-01T00:37:24.531Z,6.15
2022-08-01T00:42:26.065Z,7.85
2022-08-01T00:47:27.579Z,9.20
2022-08-01T00:52:29.147Z,9.10
2022-08-01T00:58:02.221Z,11.10
2022-08-01T01:02:52.762Z,10.90
2022-08-01T01:08:03.138Z,10.55
2022-08-01T01:13:10.410Z,8.55
2022-08-01T01:18:20.638Z,7.43
2022-08-01T01:23:46.886Z,7.13
2022-08-01T01:29:12.253Z,5.82
2022-08-01T01:34:16.264Z,3.13
2022-08-01T01:39:18.641Z,2.97
2022-08-01T01:44:22.946Z,3.28
2022-08-01T01:49:26.824Z,1.40
2022-08-01T01:54:36.198Z,3.85
2022-08-01T01:59:40.515Z,9.18
2022-08-01T02:04:44.656Z,4.20
2022-08-01T02:09:47.955Z,4.18
2022-08-01T02:14:53.353Z,6.22
2022-08-01T02:19:55.461Z,7.43
2022-08-01T02:25:04.640Z,7.75
2022-08-01T02:30:08.310Z,6.60
2022-08-01T02:35:14.422Z,7.53
2022-08-01T02:40:18.294Z,8.63
2022-08-01T02:45:23.370Z,8.88
2022-08-01T02:50:27.424Z,10.85
2022-08-01T02:55:29.999Z,13.82
2022-08-01T03:00:33.331Z,9.77
2022-08-01T03:05:36.661Z,11.57
2022-08-01T03:10:40.876Z,13.00
2022-08-01T03:15:45.017Z,7.57
2022-08-01T03:20:47.070Z,12.07
2022-08-01T03:25:52.100Z,5.82
2022-08-01T03:30:54.351Z,8.68
2022-08-01T03:35:56.818Z,21.90
2022-08-01T03:41:03.588Z,17.15
2022-08-01T03:46:10.359Z,18.10
2022-08-01T03:51:13.549Z,21.23
2022-08-01T03:56:20.276Z,21.38
2022-08-01T04:01:22.298Z,20.83
2022-08-01T04:06:26.866Z,21.00
2022-08-01T04:11:29.482Z,21.33
2022-08-01T04:16:31.101Z,19.13
2022-08-01T04:21:33.857Z,21.30
2022-08-01T04:26:37.263Z,23.23
2022-08-01T04:31:42.999Z,17.52
2022-08-01T04:36:46.429Z,15.52
2022-08-01T04:41:48.761Z,19.80
2022-08-01T04:46:55.508Z,24.75
2022-08-01T04:51:58.695Z,27.80
2022-08-01T04:57:01.418Z,28.02
2022-08-01T05:02:03.314Z,24.60
2022-08-01T05:07:05.831Z,28.55
2022-08-01T05:12:08.545Z,21.05
2022-08-01T05:17:10.636Z,22.50
2022-08-01T05:22:12.331Z,17.88
2022-08-01T05:27:15.598Z,13.38
2022-08-01T05:32:18.170Z,19.25
2022-08-01T05:37:21.535Z,18.00
2022-08-01T05:42:23.147Z,14.77
2022-08-01T05:47:24.796Z,19.90
2022-08-01T05:52:26.347Z,15.77
2022-08-01T05:57:27.909Z,14.63
2022-08-01T06:02:29.684Z,16.85
2022-08-01T06:07:31.283Z,23.45
2022-08-01T06:12:36.924Z,18.27
2022-08-01T06:17:38.603Z,17.80
2022-08-01T06:22:40.145Z,16.10
2022-08-01T06:27:42.254Z,17.45
2022-08-01T06:32:43.836Z,17.42
2022-08-01T06:37:48.596Z,25.83
2022-08-01T06:42:50.849Z,22.52
2022-08-01T06:47:52.730Z,16.25
2022-08-01T06:52:54.339Z,20.75
2022-08-01T06:57:55.982Z,20.90
2022-08-01T07:02:59.646Z,20.25
2022-08-01T07:08:01.199Z,17.10
2022-08-01T07:13:02.803Z,22.13
2022-08-01T07:18:05.666Z,16.42
2022-08-01T07:23:07.358Z,14.30
2022-08-01T07:28:09.765Z,22.95
2022-08-01T07:33:11.909Z,15.15
2022-08-01T07:38:13.820Z,16.75
2022-08-01T07:43:15.370Z,17.58
2022-08-01T07:48:22.256Z,21.40
2022-08-01T07:53:24.036Z,16.53
2022-08-01T07:58:26.301Z,17.42
2022-08-01T08:03:27.947Z,18.70
2022-08-01T08:08:29.577Z,12.43
2022-08-01T08:13:31.268Z,17.13
2022-08-01T08:18:32.807Z,16.60
2022-08-01T08:23:53.267Z,9.65
2022-08-01T08:28:54.806Z,13.25
2022-08-01T08:33:56.741Z,13.65
2022-08-01T08:39:04.457Z,16.00
2022-08-01T08:44:10.038Z,19.75
2022-08-01T08:49:20.621Z,15.43
2022-08-01T08:54:29.146Z,17.35
2022-08-01T08:59:33.350Z,9.63
2022-08-01T09:09:56.781Z,13.48
2022-08-01T09:15:01.903Z,13.63
2022-08-01T09:20:04.055Z,13.13
2022-08-01T09:25:09.742Z,13.57
2022-08-01T09:30:23.695Z,10.93
2022-08-01T09:35:43.340Z,17.63
2022-08-01T09:40:49.993Z,11.82
2022-08-01T09:45:53.549Z,16.00
2022-08-01T09:51:04.042Z,12.02
2022-08-01T09:56:14.084Z,10.55
2022-08-01T10:01:15.831Z,8.13
2022-08-01T10:06:24.751Z,15.63
2022-08-01T10:11:27.428Z,12.13
2022-08-01T10:16:40.120Z,12.13
2022-08-01T10:21:57.436Z,14.88
2022-08-01T10:27:09.257Z,14.15
2022-08-01T10:32:11.204Z,11.05
2022-08-01T10:37:14.406Z,16.10
2022-08-01T10:42:18.822Z,14.18
2022-08-01T10:47:50.599Z,13.65
2022-08-01T10:53:23.203Z,13.55
2022-08-01T10:58:42.752Z,12.93
2022-08-01T11:04:03.077Z,12.60
2022-08-01T11:09:12.701Z,13.52
2022-08-01T11:14:25.939Z,12.63
2022-08-01T11:20:07.800Z,13.07
2022-08-01T11:25:09.560Z,11.13
2022-08-01T11:30:15.186Z,12.27
2022-08-01T11:35:21.795Z,10.52
2022-08-01T11:40:28.023Z,10.15
2022-08-01T11:45:48.675Z,13.18
2022-08-01T11:50:54.590Z,14.88
2022-08-01T11:55:56.379Z,10.83
2022-08-01T12:00:59.338Z,9.70
2022-08-01T12:06:01.800Z,7.43
2022-08-01T12:11:06.930Z,7.60
2022-08-01T12:16:10.136Z,10.95
2022-08-01T12:21:11.747Z,18.25
2022-08-01T12:26:25.856Z,8.95
2022-08-01T12:31:33.804Z,10.15
2022-08-01T12:36:38.102Z,11.52
2022-08-01T12:41:39.662Z,8.95
2022-08-01T12:46:44.492Z,5.18
2022-08-01T12:51:46.508Z,11.77
2022-08-01T12:56:59.464Z,6.80
2022-08-01T13:02:09.720Z,10.30
2022-08-01T13:07:11.317Z,10.23
2022-08-01T13:12:13.231Z,8.80
2022-08-01T13:17:34.132Z,9.25
2022-08-01T13:22:37.579Z,6.35
2022-08-01T13:27:39.676Z,8.32
2022-08-01T13:32:59.947Z,10.48
2022-08-01T13:38:01.498Z,7.75
2022-08-01T13:43:03.372Z,7.43
2022-08-01T13:48:12.763Z,6.65
2022-08-01T13:53:20.243Z,5.38
2022-08-01T13:58:21.847Z,9.23
2022-08-01T14:03:27.125Z,6.32
2022-08-01T14:08:35.486Z,5.78
2022-08-01T14:13:39.441Z,9.02
2022-08-01T14:18:48.288Z,5.35
2022-08-01T14:23:50.211Z,5.30
2022-08-01T14:28:51.852Z,6.93
2022-08-01T14:33:53.502Z,8.73
2022-08-01T14:38:55.194Z,6.20
2022-08-01T14:44:03.387Z,6.68
2022-08-01T14:49:05.018Z,11.77
2022-08-01T14:54:07.057Z,7.45
2022-08-01T14:59:10.917Z,7.82
2022-08-01T15:04:23.459Z,5.68
2022-08-01T15:09:25.277Z,4.07
2022-08-01T15:14:45.358Z,3.65
2022-08-01T15:19:52.214Z,5.15
2022-08-01T15:24:57.555Z,4.78
2022-08-01T15:30:02.117Z,8.15
2022-08-01T15:35:03.965Z,7.03
2022-08-01T15:40:06.154Z,10.07
2022-08-01T15:45:10.679Z,5.97
2022-08-01T15:50:15.046Z,6.22
2022-08-01T15:55:16.656Z,6.03
2022-08-01T16:00:18.380Z,7.97
2022-08-01T16:05:20.306Z,5.38
2022-08-01T16:10:24.645Z,6.35
2022-08-01T16:15:34.797Z,6.15
2022-08-01T16:20:44.594Z,4.72
2022-08-01T16:25:49.410Z,5.25
2022-08-01T16:31:04.972Z,7.75
2022-08-01T16:36:17.031Z,7.75
2022-08-01T16:41:19.855Z,4.33
2022-08-01T16:46:23.827Z,6.35
2022-08-01T16:51:25.457Z,6.68
2022-08-01T16:56:26.992Z,7.13
2022-08-01T17:01:59.011Z,4.78
2022-08-01T17:06:52.308Z,3.97
2022-08-01T17:11:53.922Z,5.25
2022-08-01T17:16:55.624Z,4.80
2022-08-01T17:21:57.197Z,5.90
2022-08-01T17:26:58.805Z,6.40
2022-08-01T17:32:00.401Z,5.35
2022-08-01T17:37:02.440Z,9.13
2022-08-01T17:42:07.729Z,11.13
2022-08-01T17:47:09.721Z,4.68
2022-08-01T17:52:14.522Z,5.22
2022-08-01T17:57:16.545Z,6.25
2022-08-01T18:02:20.226Z,6.07
2022-08-01T18:07:22.387Z,6.22
2022-08-01T18:12:43.961Z,6.50
2022-08-01T18:17:45.563Z,5.13
2022-08-01T18:22:47.174Z,5.85
2022-08-01T18:28:23.388Z,8.50
2022-08-01T18:33:10.896Z,6.15
2022-08-01T18:38:16.320Z,8.18
2022-08-01T18:43:18.351Z,6.88
2022-08-01T18:48:20.316Z,17.17
2022-08-01T18:53:23.952Z,3.90
2022-08-01T18:58:25.654Z,9.05
2022-08-01T19:03:27.301Z,9.27
2022-08-01T19:08:28.836Z,8.25
2022-08-01T19:13:31.779Z,6.60
2022-08-01T19:18:33.901Z,7.25
2022-08-01T19:23:55.548Z,6.97
2022-08-01T19:29:01.822Z,9.05
2022-08-01T19:34:05.464Z,6.43
2022-08-01T19:39:07.709Z,7.68
2022-08-01T19:44:12.419Z,7.65
2022-08-01T19:49:23.670Z,6.90
2022-08-01T19:54:29.670Z,10.45
2022-08-01T19:59:37.082Z,8.88
2022-08-01T20:04:38.748Z,5.70
2022-08-01T20:09:41.859Z,7.00
2022-08-01T20:14:43.932Z,12.73
2022-08-01T20:19:45.476Z,4.97
2022-08-01T20:24:54.849Z,10.98
2022-08-01T20:29:58.403Z,19.60
2022-08-01T20:35:00.568Z,11.95
2022-08-01T20:40:02.876Z,10.45
2022-08-01T20:45:05.321Z,9.93
2022-08-01T20:50:27.069Z,9.63
2022-08-01T20:55:54.560Z,9.90
2022-08-01T21:00:57.365Z,8.25
2022-08-01T21:06:08.107Z,12.00
2022-08-01T21:11:16.079Z,12.73
2022-08-01T21:16:26.334Z,16.63
2022-08-01T21:21:27.934Z,7.47
2022-08-01T21:26:31.161Z,6.35
2022-08-01T21:31:40.763Z,8.02
2022-08-01T21:36:45.853Z,7.80
2022-08-01T21:41:56.512Z,9.48
2022-08-01T21:47:03.077Z,9.95
2022-08-01T21:52:10.739Z,9.48
2022-08-01T21:57:34.716Z,8.93
2022-08-01T22:02:42.240Z,11.13
2022-08-01T22:07:57.596Z,11.30
2022-08-01T22:12:59.184Z,9.98
2022-08-01T22:18:01.500Z,11.77
2022-08-01T22:23:05.118Z,7.50
2022-08-01T22:28:09.949Z,13.52
2022-08-01T22:33:17.178Z,8.43
2022-08-01T22:38:22.493Z,10.13
2022-08-01T22:43:30.157Z,10.80
2022-08-01T22:48:40.585Z,7.70
2022-08-01T22:54:02.550Z,8.48
2022-08-01T22:59:14.570Z,7.93
2022-08-01T23:04:33.880Z,9.98
2022-08-01T23:09:53.196Z,7.72
2022-08-01T23:14:58.081Z,7.97
2022-08-01T23:20:07.289Z,6.30
2022-08-01T23:25:11.986Z,4.00
2022-08-01T23:30:14.124Z,8.70
2022-08-01T23:35:15.641Z,10.27
2022-08-01T23:40:17.873Z,7.63
2022-08-01T23:45:19.526Z,6.00
2022-08-01T23:50:21.942Z,8.00
2022-08-01T23:55:36.803Z,8.20
